createdAt,value
2022-08-17T07:30:20.911Z,100580.66
2022-08-17T07:32:53.491Z,100582.19
2022-08-17T07:35:41.295Z,100588.84
2022-08-17T07:38:24.857Z,100586.28
2022-08-17T07:41:03.864Z,100599.13
2022-08-17T07:43:35.598Z,100602.22
2022-08-17T07:46:38.174Z,100594.03
2022-08-17T07:49:34.719Z,100598.25
2022-08-17T07:52:24.825Z,100594.03
2022-08-17T07:54:56.158Z,100598.91
2022-08-17T07:57:36.956Z,100595.13
2022-08-17T08:00:12.802Z,100597.44
2022-08-17T08:02:58.679Z,100591.63
2022-08-17T08:05:49.243Z,100595.63
2022-08-17T08:08:30.551Z,100594.63
2022-08-17T08:11:02.025Z,100598.38
2022-08-17T08:13:32.376Z,100597.78
2022-08-17T08:16:25.481Z,100587.31
2022-08-17T08:18:58.225Z,100592.25
2022-08-17T08:21:36.877Z,100596.72
2022-08-17T08:24:36.761Z,100585.09
2022-08-17T08:27:16.780Z,100583.56
2022-08-17T08:29:52.850Z,100580.13
2022-08-17T08:32:31.150Z,100582.69
2022-08-17T08:35:07.711Z,100589.81
2022-08-17T08:38:07.418Z,100601.63
2022-08-17T08:40:57.616Z,100597.94
2022-08-17T08:43:36.866Z,100595.97
2022-08-17T08:46:15.705Z,100601.22
2022-08-17T08:49:12.046Z,100610.41
2022-08-17T08:51:53.101Z,100618.47
2022-08-17T08:54:34.776Z,100616.09
2022-08-17T08:57:26.447Z,100620.16
2022-08-17T09:00:08.328Z,100607.69
2022-08-17T09:02:55.464Z,100602.91
2022-08-17T09:05:34.945Z,100611.22
2022-08-17T09:08:13.872Z,100605.16
2022-08-17T09:11:03.622Z,100608.19
2022-08-17T09:13:41.633Z,100614.56
2022-08-17T09:16:16.548Z,100608.56
2022-08-17T09:19:00.795Z,100608.38
2022-08-17T09:21:48.241Z,100600.16
2022-08-17T09:24:25.821Z,100595.69
2022-08-17T09:27:00.085Z,100595.53
2022-08-17T09:29:35.075Z,100596.16
2022-08-17T09:32:10.768Z,100607.13
2022-08-17T09:34:48.554Z,100600.03
2022-08-17T09:37:24.113Z,100598.53
2022-08-17T09:40:04.581Z,100607.28
2022-08-17T09:42:43.753Z,100605.66
2022-08-17T09:45:24.990Z,100602.06
2022-08-17T09:47:57.823Z,100598.31
2022-08-17T09:51:05.530Z,100603.38
2022-08-17T09:53:22.918Z,100602.91
2022-08-17T09:56:18.624Z,100618.06
2022-08-17T09:59:03.591Z,100618.38
2022-08-17T10:01:38.536Z,100633.88
2022-08-17T10:04:26.037Z,100634.13
2022-08-17T10:07:07.131Z,100641.47
2022-08-17T10:09:49.853Z,100635.31
2022-08-17T10:12:33.111Z,100645.41
2022-08-17T10:15:21.940Z,100634.53
2022-08-17T10:18:07.753Z,100631.44
2022-08-17T10:20:43.137Z,100634.00
2022-08-17T10:23:34.904Z,100637.94
2022-08-17T10:26:15.480Z,100644.19
2022-08-17T10:28:50.781Z,100646.88
2022-08-17T10:31:34.582Z,100656.53
2022-08-17T10:34:41.513Z,100652.81
2022-08-17T10:37:28.585Z,100654.31
2022-08-17T10:40:09.114Z,100653.31
2022-08-17T10:42:46.899Z,100664.78
2022-08-17T10:45:26.497Z,100668.97
2022-08-17T10:48:06.301Z,100674.88
2022-08-17T10:50:50.382Z,100680.44
2022-08-17T10:53:55.698Z,100677.38
2022-08-17T10:56:43.897Z,100689.22
2022-08-17T10:59:50.440Z,100692.69
2022-08-17T11:02:35.080Z,100683.25
2022-08-17T11:05:20.838Z,100691.44
2022-08-17T11:08:12.968Z,100689.09
2022-08-17T11:19:33.106Z,100667.16
2022-08-17T11:23:02.672Z,100665.97
2022-08-17T11:30:07.170Z,100666.91
2022-08-17T11:33:01.423Z,100666.91
2022-08-17T11:35:54.306Z,100669.81
2022-08-17T11:39:25.007Z,100670.16
2022-08-17T11:42:40.782Z,100673.78
2022-08-17T11:46:08.172Z,100684.78
2022-08-17T11:49:01.660Z,100685.13
2022-08-17T11:52:14.448Z,100679.78
2022-08-17T11:55:33.883Z,100683.16
2022-08-17T11:58:30.994Z,100679.09
2022-08-17T12:01:16.114Z,100677.38
2022-08-17T12:04:31.996Z,100689.22
2022-08-17T12:07:47.554Z,100687.28
2022-08-17T12:10:34.481Z,100688.22
2022-08-17T12:17:40.637Z,100698.50
2022-08-17T12:20:43.487Z,100701.66
2022-08-17T12:26:40.786Z,100698.28
2022-08-17T12:32:46.838Z,100700.72
2022-08-17T12:44:33.800Z,100701.59
2022-08-17T12:47:07.667Z,100716.38
2022-08-17T12:50:28.795Z,100714.44
2022-08-17T12:57:13.434Z,100708.22
2022-08-17T13:00:00.962Z,100692.53
2022-08-17T13:02:49.760Z,100693.91
2022-08-17T13:05:29.680Z,100698.28
2022-08-17T13:08:01.745Z,100693.19
2022-08-17T13:18:39.080Z,100693.75
2022-08-17T13:21:12.601Z,100690.31
2022-08-17T13:33:43.306Z,100686.69
2022-08-17T13:36:19.394Z,100690.22
2022-08-17T13:39:08.128Z,100694.53
2022-08-17T13:41:41.603Z,100696.31
2022-08-17T13:52:58.762Z,100697.97
2022-08-17T13:56:37.655Z,100711.44
2022-08-17T14:00:35.637Z,100727.78
2022-08-17T14:03:06.472Z,100730.94
2022-08-17T14:05:38.015Z,100729.59
2022-08-17T14:08:08.090Z,100721.09
2022-08-17T14:10:36.825Z,100705.69
2022-08-17T14:13:05.636Z,100718.31
2022-08-17T14:15:56.124Z,100716.81
2022-08-17T14:18:54.308Z,100711.59
2022-08-17T14:21:11.287Z,100722.47
2022-08-17T14:23:40.993Z,100722.53
2022-08-17T14:26:11.958Z,100717.28
2022-08-17T14:28:43.031Z,100710.34
2022-08-17T14:31:23.119Z,100712.34
2022-08-17T14:33:51.473Z,100703.84
2022-08-17T14:36:19.931Z,100703.28
2022-08-17T14:38:49.579Z,100697.28
2022-08-17T14:41:22.051Z,100703.72
2022-08-17T14:43:52.939Z,100700.72
2022-08-17T14:46:21.490Z,100698.66
2022-08-17T14:48:57.405Z,100700.44
2022-08-17T14:51:30.356Z,100700.63
2022-08-17T14:53:59.866Z,100698.53
2022-08-17T14:56:28.303Z,100688.50
2022-08-17T14:59:03.342Z,100694.22
2022-08-17T15:01:31.774Z,100685.84
2022-08-17T15:04:00.857Z,100682.06
2022-08-17T15:06:29.186Z,100687.81
2022-08-17T15:08:57.509Z,100681.94
2022-08-17T15:11:27.182Z,100679.31
2022-08-17T15:13:55.346Z,100675.59
2022-08-17T15:16:23.755Z,100668.75
2022-08-17T15:18:52.755Z,100663.06
2022-08-17T15:22:13.541Z,100657.03
2022-08-17T15:24:41.910Z,100649.84
2022-08-17T15:28:21.017Z,100650.94
2022-08-17T15:30:50.814Z,100656.38
2022-08-17T15:42:04.701Z,100640.59
2022-08-17T15:44:35.007Z,100635.16
2022-08-17T15:47:03.531Z,100639.63
2022-08-17T15:49:31.604Z,100650.88
2022-08-17T15:52:00.005Z,100646.59
2022-08-17T15:54:34.525Z,100647.38
2022-08-17T15:57:04.284Z,100652.72
2022-08-17T15:59:35.834Z,100658.50
2022-08-17T16:03:01.640Z,100657.38
2022-08-17T16:04:52.740Z,100653.63
2022-08-17T16:07:26.376Z,100647.97
2022-08-17T16:09:55.212Z,100643.09
2022-08-17T16:12:23.625Z,100652.19
2022-08-17T16:14:53.379Z,100646.44
2022-08-17T16:17:40.042Z,100661.66
2022-08-17T16:20:09.991Z,100664.41
2022-08-17T16:22:50.874Z,100674.91
2022-08-17T16:25:23.075Z,100673.78
2022-08-17T16:28:11.468Z,100673.69
2022-08-17T16:30:42.512Z,100682.06
2022-08-17T16:33:12.763Z,100681.97
2022-08-17T16:35:42.190Z,100676.91
2022-08-17T16:38:12.455Z,100679.25
2022-08-17T16:40:41.833Z,100678.19
2022-08-17T16:43:12.077Z,100690.94
2022-08-17T16:45:42.626Z,100702.00
2022-08-17T16:48:11.945Z,100699.59
2022-08-17T16:50:40.423Z,100698.94
2022-08-17T16:53:17.936Z,100691.53
2022-08-17T16:55:47.379Z,100689.59
2022-08-17T16:58:16.762Z,100692.78
2022-08-17T17:00:48.895Z,100697.63
2022-08-17T17:03:20.637Z,100703.47
2022-08-17T17:06:00.329Z,100693.97
2022-08-17T17:08:42.114Z,100692.72
2022-08-17T17:11:15.870Z,100697.63
2022-08-17T17:13:48.107Z,100708.84
2022-08-17T17:16:24.065Z,100701.34
2022-08-17T17:19:04.861Z,100694.66
2022-08-17T17:21:42.956Z,100694.13
2022-08-17T17:24:16.055Z,100697.69
2022-08-17T17:26:58.568Z,100701.91
2022-08-17T17:29:47.390Z,100698.13
2022-08-17T17:32:22.660Z,100705.94
2022-08-17T17:34:55.234Z,100707.47
2022-08-17T17:37:28.639Z,100703.78
2022-08-17T17:40:01.161Z,100710.72
2022-08-17T17:42:33.039Z,100714.00
2022-08-17T17:45:08.124Z,100707.78
2022-08-17T17:47:38.173Z,100705.22
2022-08-17T17:50:11.564Z,100712.09
2022-08-17T17:52:48.422Z,100709.03
2022-08-17T17:55:27.343Z,100709.38
2022-08-17T17:58:06.564Z,100699.91
2022-08-17T18:00:41.499Z,100713.81
2022-08-17T18:03:25.715Z,100717.28
2022-08-17T18:06:07.093Z,100723.81
2022-08-17T18:08:50.771Z,100731.53
2022-08-17T18:11:35.222Z,100730.00
2022-08-17T18:14:30.581Z,100738.59
2022-08-17T18:17:01.962Z,100735.34
2022-08-17T18:19:33.047Z,100741.38
2022-08-17T18:22:08.589Z,100734.19
2022-08-17T18:24:44.942Z,100739.00
2022-08-17T18:27:24.594Z,100744.16
2022-08-17T18:29:54.674Z,100740.41
2022-08-17T18:32:35.785Z,100738.63
2022-08-17T18:35:35.247Z,100746.94
2022-08-17T18:38:23.222Z,100749.72
2022-08-17T18:41:01.371Z,100742.66
2022-08-17T18:43:44.447Z,100739.72
2022-08-17T18:46:29.632Z,100746.09
2022-08-17T18:49:03.171Z,100743.53
2022-08-17T18:51:40.366Z,100743.19
2022-08-17T18:54:20.889Z,100758.00
2022-08-17T18:56:54.973Z,100754.19
2022-08-17T18:59:34.634Z,100760.06
2022-08-17T19:02:32.543Z,100760.22
2022-08-17T19:05:13.334Z,100771.59
2022-08-17T19:07:45.520Z,100773.50
2022-08-17T19:10:25.410Z,100788.94
2022-08-17T19:13:00.423Z,100793.25
2022-08-17T19:15:35.938Z,100802.03
2022-08-17T19:18:15.128Z,100800.63
2022-08-17T19:20:48.210Z,100797.50
2022-08-17T19:23:23.952Z,100810.28
2022-08-17T19:25:54.852Z,100805.97
2022-08-17T19:28:30.447Z,100811.63
2022-08-17T19:31:03.558Z,100812.50
